Time;durP1;ratioP1;P1;durP2;ratioP2;P2;SDS_P1;SDS_P2;PMS_P1;PMS_P2;Temp;Humidity;BMP_temperature;BMP_pressure;BME280_temperature;BME280_humidity;BME280_pressure;Samples;Min_cycle;Max_cycle;Signal;HPM_P1;HPM_P2
2023/08/24 00:01:16;;;;;;;9.23;6.93;;;;;;;16.21;98.64;101653.22;5069636;28;20028;-78
2023/08/24 00:03:44;;;;;;;9.52;7.40;;;;;;;16.18;99.21;101650.94;5068070;28;20089;-78
2023/08/24 00:06:10;;;;;;;9.82;7.75;;;;;;;16.14;99.97;101648.88;5064050;28;20056;-78
2023/08/24 00:08:37;;;;;;;8.80;7.00;;;;;;;16.08;100.00;101636.94;5067241;28;20435;-78
2023/08/24 00:11:02;;;;;;;11.65;7.88;;;;;;;16.08;100.00;101634.25;5079661;22;20048;-78
2023/08/24 00:13:27;;;;;;;10.75;7.82;;;;;;;16.08;100.00;101626.09;5090720;28;20081;-78
2023/08/24 00:15:53;;;;;;;7.95;7.13;;;;;;;16.09;99.94;101618.78;5089937;28;20024;-78
2023/08/24 00:18:21;;;;;;;11.60;8.07;;;;;;;16.09;100.00;101618.78;5090608;28;20036;-78
2023/08/24 00:20:47;;;;;;;9.10;8.15;;;;;;;16.05;100.00;101616.50;5088915;28;20020;-78
2023/08/24 00:23:13;;;;;;;10.07;7.95;;;;;;;16.09;100.00;101610.66;5086034;28;20032;-78
2023/08/24 00:25:40;;;;;;;13.07;8.80;;;;;;;16.10;100.00;101610.41;5088898;28;20054;-77
2023/08/24 00:28:06;;;;;;;10.10;8.65;;;;;;;16.10;100.00;101618.56;5088685;28;20027;-78
2023/08/24 00:30:31;;;;;;;13.70;8.95;;;;;;;16.08;100.00;101622.56;5088150;28;20028;-78
2023/08/24 00:32:57;;;;;;;13.80;8.85;;;;;;;16.04;100.00;101622.16;5088361;28;20035;-78
2023/08/24 00:35:22;;;;;;;11.02;8.40;;;;;;;16.00;100.00;101620.91;5090758;28;20031;-78
2023/08/24 00:37:47;;;;;;;9.07;7.93;;;;;;;15.99;100.00;101613.81;5086231;28;20026;-78
2023/08/24 00:40:13;;;;;;;11.77;8.80;;;;;;;15.98;100.00;101609.44;5089719;28;20028;-78
2023/08/24 00:42:42;;;;;;;11.25;8.63;;;;;;;15.97;100.00;101610.47;5088836;28;20061;-79
2023/08/24 00:45:09;;;;;;;11.20;9.65;;;;;;;15.95;100.00;101607.97;5086504;28;20123;-79
2023/08/24 00:47:35;;;;;;;13.75;9.65;;;;;;;15.90;100.00;101605.06;5089301;28;20036;-79
2023/08/24 00:50:00;;;;;;;14.13;10.13;;;;;;;15.85;100.00;101611.16;5070609;28;20028;-79
2023/08/24 00:52:26;;;;;;;12.95;10.00;;;;;;;15.81;100.00;101611.72;5082311;28;20031;-79
2023/08/24 00:54:51;;;;;;;14.52;10.45;;;;;;;15.76;100.00;101610.53;5051454;28;20073;-79
2023/08/24 00:57:17;;;;;;;12.27;9.75;;;;;;;15.75;100.00;101608.84;5088020;28;20499;-79
2023/08/24 00:59:42;;;;;;;12.50;9.85;;;;;;;15.73;100.00;101605.50;5087517;28;20024;-79
2023/08/24 01:02:08;;;;;;;12.35;9.80;;;;;;;15.72;100.00;101613.84;5087083;28;20503;-80
2023/08/24 01:04:33;;;;;;;13.45;10.50;;;;;;;15.69;100.00;101593.41;5066962;28;20020;-79
2023/08/24 01:06:58;;;;;;;15.05;10.45;;;;;;;15.72;100.00;101603.84;5089424;28;20100;-79
2023/08/24 01:09:24;;;;;;;14.07;10.70;;;;;;;15.73;100.00;101594.66;5090156;28;20024;-79
2023/08/24 01:12:28;;;;;;;13.50;11.05;;;;;;;15.74;100.00;101600.91;5066710;28;20036;-79
2023/08/24 01:14:59;;;;;;;14.48;11.48;;;;;;;15.70;100.00;101602.41;5069302;28;20059;-79
2023/08/24 01:17:27;;;;;;;13.00;10.85;;;;;;;15.67;100.00;101602.81;5083311;28;20039;-79
2023/08/24 01:19:52;;;;;;;17.60;12.77;;;;;;;15.67;100.00;101610.97;5060217;28;20125;-79
2023/08/24 01:22:27;;;;;;;15.57;12.30;;;;;;;15.70;100.00;101610.53;5074800;28;20427;-79
2023/08/24 01:24:58;;;;;;;15.25;10.93;;;;;;;15.70;100.00;101605.09;5093395;28;20377;-79
2023/08/24 01:27:23;;;;;;;15.15;11.00;;;;;;;15.71;100.00;101610.31;5075045;28;20036;-79
2023/08/24 01:29:50;;;;;;;15.63;11.25;;;;;;;15.74;100.00;101609.03;5074937;28;20077;-79
2023/08/24 01:32:15;;;;;;;16.50;11.90;;;;;;;15.76;100.00;101598.81;5059394;28;20024;-79
2023/08/24 01:34:43;;;;;;;14.60;11.90;;;;;;;15.74;100.00;101590.88;5090452;28;20016;-79
2023/08/24 01:37:09;;;;;;;13.20;11.20;;;;;;;15.72;100.00;101587.56;5092392;28;20035;-78
2023/08/24 01:39:57;;;;;;;13.25;11.52;;;;;;;15.72;100.00;101589.41;5070726;28;20391;-79
2023/08/24 01:42:24;;;;;;;15.63;12.32;;;;;;;15.70;100.00;101578.78;5075540;28;20048;-79
2023/08/24 01:44:50;;;;;;;16.42;12.82;;;;;;;15.73;100.00;101564.78;5075263;28;20397;-79
2023/08/24 01:47:16;;;;;;;14.23;11.40;;;;;;;15.73;100.00;101574.81;5093805;28;20028;-79
2023/08/24 01:49:44;;;;;;;15.40;11.63;;;;;;;15.72;100.00;101570.41;5059149;28;20077;-79
2023/08/24 01:52:12;;;;;;;16.33;12.23;;;;;;;15.71;100.00;101560.59;5073592;28;20483;-79
2023/08/24 01:54:38;;;;;;;13.75;10.80;;;;;;;15.69;100.00;101570.88;5057566;28;20081;-79
2023/08/24 01:57:06;;;;;;;13.45;10.57;;;;;;;15.67;100.00;101573.78;5075453;28;20020;-79
2023/08/24 01:59:32;;;;;;;15.77;10.95;;;;;;;15.65;100.00;101566.91;5091494;28;20032;-79
2023/08/24 02:01:57;;;;;;;11.88;10.68;;;;;;;15.64;100.00;101565.22;5090585;28;20038;-79
2023/08/24 02:04:23;;;;;;;13.98;10.25;;;;;;;15.66;100.00;101555.81;5091000;28;20013;-79
2023/08/24 02:06:48;;;;;;;13.43;9.85;;;;;;;15.69;100.00;101560.00;5091935;28;20028;-79
2023/08/24 02:09:13;;;;;;;12.95;10.20;;;;;;;15.71;100.00;101566.88;5092345;28;20040;-79
2023/08/24 02:11:39;;;;;;;15.50;10.80;;;;;;;15.71;100.00;101563.31;5083264;28;20048;-79
2023/08/24 02:14:04;;;;;;;12.65;10.45;;;;;;;15.70;100.00;101564.41;5069404;28;20040;-79
2023/08/24 02:16:30;;;;;;;12.38;10.45;;;;;;;15.69;100.00;101560.00;5063410;28;20027;-78
2023/08/24 02:18:55;;;;;;;12.10;10.55;;;;;;;15.68;100.00;101563.78;5064351;28;20447;-80
2023/08/24 02:21:21;;;;;;;12.02;9.85;;;;;;;15.64;100.00;101568.78;5061555;28;20025;-77
2023/08/24 02:23:46;;;;;;;13.20;10.27;;;;;;;15.63;100.00;101571.72;5067245;28;20423;-79
2023/08/24 02:26:12;;;;;;;11.40;10.20;;;;;;;15.61;100.00;101567.31;5072652;28;20082;-79
2023/08/24 02:28:37;;;;;;;12.90;10.52;;;;;;;15.70;100.00;101577.97;5066521;28;20050;-80
2023/08/24 02:31:03;;;;;;;13.40;9.85;;;;;;;15.72;100.00;101584.00;5065346;28;20035;-79
2023/08/24 02:33:29;;;;;;;13.35;9.63;;;;;;;15.77;100.00;101585.03;5067649;28;20041;-80
2023/08/24 02:35:54;;;;;;;12.68;9.43;;;;;;;15.83;100.00;101582.50;5062247;28;20469;-79
2023/08/24 02:38:20;;;;;;;12.77;9.90;;;;;;;15.85;100.00;101586.72;5069563;28;20119;-79
2023/08/24 02:40:45;;;;;;;11.57;9.82;;;;;;;15.89;100.00;101581.69;5066785;28;20024;-78
2023/08/24 02:43:11;;;;;;;11.15;10.05;;;;;;;15.89;100.00;101574.34;5070067;28;20028;-81
2023/08/24 02:45:36;;;;;;;12.70;9.63;;;;;;;15.90;100.00;101573.31;5066798;28;20506;-80
2023/08/24 02:48:02;;;;;;;12.40;9.73;;;;;;;15.91;100.00;101574.97;5068873;28;20103;-81
2023/08/24 02:50:27;;;;;;;13.48;9.63;;;;;;;15.95;100.00;101586.25;5071214;28;20110;-81
2023/08/24 02:52:53;;;;;;;11.32;9.85;;;;;;;15.95;100.00;101586.25;5067556;28;20039;-78
2023/08/24 02:55:18;;;;;;;12.20;10.05;;;;;;;15.95;100.00;101590.84;5068518;28;20028;-78
2023/08/24 02:57:44;;;;;;;13.13;10.25;;;;;;;15.96;100.00;101592.50;5089598;28;20025;-79
2023/08/24 03:00:09;;;;;;;15.40;11.23;;;;;;;15.94;100.00;101591.88;5089072;28;20013;-78
2023/08/24 03:02:36;;;;;;;14.73;10.75;;;;;;;15.91;100.00;101585.84;5089779;28;20472;-79
2023/08/24 03:05:02;;;;;;;16.05;10.88;;;;;;;15.91;100.00;101572.25;5068358;28;20021;-79
2023/08/24 03:07:27;;;;;;;11.73;10.52;;;;;;;15.91;100.00;101555.16;5059530;28;20035;-80
2023/08/24 03:09:52;;;;;;;13.07;10.20;;;;;;;15.91;100.00;101561.41;5066966;28;20027;-80
2023/08/24 03:12:18;;;;;;;13.07;10.13;;;;;;;15.94;100.00;101556.59;5069986;28;20044;-79
2023/08/24 03:14:43;;;;;;;12.07;9.57;;;;;;;15.96;100.00;101568.06;5088894;28;20027;-79
2023/08/24 03:17:08;;;;;;;11.90;9.38;;;;;;;15.98;100.00;101568.69;5088136;28;20024;-79
2023/08/24 03:19:34;;;;;;;11.57;9.63;;;;;;;16.03;100.00;101571.59;5088397;28;20031;-79
2023/08/24 03:21:59;;;;;;;11.80;9.65;;;;;;;16.06;100.00;101565.75;5087695;28;20023;-80
2023/08/24 03:24:25;;;;;;;10.93;9.82;;;;;;;16.08;100.00;101566.34;5085032;28;20023;-79
2023/08/24 03:26:50;;;;;;;12.52;10.60;;;;;;;16.11;100.00;101565.91;5092061;28;20086;-80
2023/08/24 03:29:15;;;;;;;12.13;9.82;;;;;;;16.13;100.00;101552.13;5087283;28;20486;-79
2023/08/24 03:31:41;;;;;;;11.95;9.88;;;;;;;16.13;100.00;101546.69;5087651;28;20040;-80
2023/08/24 03:34:06;;;;;;;11.60;9.20;;;;;;;16.14;100.00;101540.22;5086674;28;20016;-79
2023/08/24 03:36:32;;;;;;;11.52;10.05;;;;;;;16.12;100.00;101526.03;5091982;28;20032;-79
2023/08/24 03:38:57;;;;;;;13.07;10.30;;;;;;;16.12;100.00;101523.31;5080522;28;20052;-80
2023/08/24 03:41:22;;;;;;;11.57;10.00;;;;;;;16.16;100.00;101506.34;5091456;28;20100;-79
2023/08/24 03:43:48;;;;;;;13.80;10.15;;;;;;;16.15;100.00;101510.09;5080526;28;20043;-78
2023/08/24 03:46:14;;;;;;;11.18;9.63;;;;;;;16.15;100.00;101504.69;5089414;28;20030;-80
2023/08/24 03:48:40;;;;;;;13.50;10.27;;;;;;;16.16;100.00;101500.91;5069215;28;20039;-80
2023/08/24 03:51:05;;;;;;;13.35;10.50;;;;;;;16.12;100.00;101493.41;5088965;28;20020;-78
2023/08/24 03:53:32;;;;;;;13.38;9.60;;;;;;;16.08;100.00;101503.06;5087794;28;20028;-78
2023/08/24 03:55:57;;;;;;;12.48;10.75;;;;;;;16.03;100.00;101490.13;5081048;28;20054;-79
2023/08/24 03:58:23;;;;;;;13.30;11.15;;;;;;;15.95;100.00;101474.06;5091037;28;20028;-79
2023/08/24 04:00:49;;;;;;;13.77;10.50;;;;;;;15.89;100.00;101471.16;5081947;28;20032;-79
2023/08/24 04:03:14;;;;;;;12.40;11.10;;;;;;;15.87;100.00;101472.44;5075623;28;20059;-79
2023/08/24 04:05:40;;;;;;;13.00;10.60;;;;;;;15.88;100.00;101474.97;5082926;28;20116;-79
2023/08/24 04:08:05;;;;;;;12.00;10.75;;;;;;;15.86;100.00;101496.06;5090142;28;20369;-79
2023/08/24 04:10:30;;;;;;;14.27;10.30;;;;;;;15.87;100.00;101500.44;5082481;28;20021;-79
2023/08/24 04:12:56;;;;;;;12.43;9.75;;;;;;;15.90;100.00;101501.88;5083729;28;20039;-79
2023/08/24 04:15:22;;;;;;;12.43;9.90;;;;;;;15.91;100.00;101504.38;5088519;28;20024;-79
2023/08/24 04:17:47;;;;;;;11.65;10.27;;;;;;;15.93;100.00;101496.03;5091316;28;20012;-79
2023/08/24 04:20:13;;;;;;;11.98;10.20;;;;;;;15.91;100.00;101498.94;5091068;28;20108;-79
2023/08/24 04:22:38;;;;;;;13.75;10.40;;;;;;;15.91;100.00;101498.94;5089434;28;20425;-80
2023/08/24 04:25:04;;;;;;;13.50;9.80;;;;;;;15.91;100.00;101498.94;5090595;28;20024;-79
2023/08/24 04:27:29;;;;;;;11.93;9.75;;;;;;;15.92;100.00;101488.94;5089505;28;20020;-79
2023/08/24 04:29:55;;;;;;;11.82;10.25;;;;;;;15.95;100.00;101476.78;5087663;28;20082;-79
2023/08/24 04:32:21;;;;;;;11.48;10.18;;;;;;;15.87;100.00;101467.88;5088788;28;20570;-79
2023/08/24 04:34:47;;;;;;;15.30;10.57;;;;;;;15.86;100.00;101458.06;5089787;28;20451;-79
2023/08/24 04:37:15;;;;;;;13.10;10.27;;;;;;;15.81;100.00;101459.69;5088919;28;20024;-79
2023/08/24 04:39:41;;;;;;;12.32;10.27;;;;;;;15.78;100.00;101460.97;5089234;28;20028;-81
2023/08/24 04:42:06;;;;;;;11.00;9.68;;;;;;;15.75;100.00;101466.84;5090040;28;20018;-77
2023/08/24 04:44:32;;;;;;;13.70;10.43;;;;;;;15.71;100.00;101457.44;5087926;28;20036;-77
2023/08/24 04:46:58;;;;;;;14.70;10.07;;;;;;;15.68;100.00;101455.19;5090227;28;20028;-76
2023/08/24 04:49:23;;;;;;;14.80;10.30;;;;;;;15.63;100.00;101439.53;5088053;28;20024;-79
2023/08/24 04:51:49;;;;;;;11.48;9.63;;;;;;;15.59;100.00;101450.00;5087004;28;20126;-77
2023/08/24 04:54:14;;;;;;;14.45;10.05;;;;;;;15.54;100.00;101438.94;5094692;28;20478;-77
2023/08/24 04:56:39;;;;;;;12.52;10.27;;;;;;;15.54;100.00;101447.09;5092753;28;20035;-77
2023/08/24 04:59:05;;;;;;;12.65;9.98;;;;;;;15.52;100.00;101443.78;5093397;28;20028;-77
2023/08/24 05:01:31;;;;;;;12.30;10.70;;;;;;;15.51;100.00;101444.84;5093619;28;20101;-77
2023/08/24 05:03:56;;;;;;;12.77;9.95;;;;;;;15.52;100.00;101451.94;5093661;28;20349;-76
2023/08/24 05:06:22;;;;;;;11.00;9.63;;;;;;;15.59;100.00;101451.91;5091520;28;20043;-75
2023/08/24 05:08:47;;;;;;;14.57;10.82;;;;;;;15.61;100.00;101450.63;5094215;28;20047;-77
2023/08/24 05:11:13;;;;;;;14.20;9.98;;;;;;;15.66;100.00;101449.97;5093779;28;20052;-77
2023/08/24 05:13:42;;;;;;;12.57;10.48;;;;;;;15.70;100.00;101450.38;5082504;28;20024;-76
2023/08/24 05:16:08;;;;;;;13.13;11.00;;;;;;;15.73;100.00;101458.06;5073874;28;20020;-76
2023/08/24 05:18:35;;;;;;;12.88;10.38;;;;;;;15.77;100.00;101460.16;5082522;28;20042;-78
2023/08/24 05:21:01;;;;;;;14.05;10.40;;;;;;;15.80;100.00;101458.88;5066952;28;20074;-80
2023/08/24 05:23:27;;;;;;;13.23;10.88;;;;;;;15.80;100.00;101450.75;5078446;28;20020;-75
2023/08/24 05:25:52;;;;;;;12.40;10.98;;;;;;;15.86;100.00;101451.78;5077645;28;20058;-74
2023/08/24 05:28:17;;;;;;;12.38;9.98;;;;;;;15.88;100.00;101445.09;5081111;28;20502;-75
2023/08/24 05:30:44;;;;;;;12.07;10.35;;;;;;;15.96;100.00;101463.00;5082608;28;20036;-75
2023/08/24 05:33:09;;;;;;;13.40;10.93;;;;;;;16.09;100.00;101462.06;5086515;28;20024;-75
2023/08/24 05:35:34;;;;;;;13.85;10.60;;;;;;;16.24;100.00;101463.69;5072807;28;20025;-75
2023/08/24 05:38:00;;;;;;;11.30;10.02;;;;;;;16.39;100.00;101461.47;5073435;28;20027;-75
2023/08/24 05:40:25;;;;;;;12.38;9.55;;;;;;;16.65;100.00;101459.56;5076836;28;20039;-75
2023/08/24 05:42:51;;;;;;;11.07;9.98;;;;;;;16.94;100.00;101454.50;5073680;28;20468;-76
2023/08/24 05:45:16;;;;;;;12.07;9.75;;;;;;;17.17;100.00;101455.75;5083658;28;20141;-76
2023/08/24 05:47:41;;;;;;;13.15;9.65;;;;;;;17.25;100.00;101459.00;5082503;28;20034;-76
2023/08/24 05:50:07;;;;;;;10.73;9.52;;;;;;;17.28;100.00;101457.72;5083224;28;20431;-76
2023/08/24 05:52:32;;;;;;;12.30;9.70;;;;;;;17.43;99.72;101460.88;5073868;28;20032;-76
2023/08/24 05:54:58;;;;;;;12.55;10.25;;;;;;;17.40;98.61;101458.63;5082336;28;20035;-76
2023/08/24 05:57:23;;;;;;;11.05;9.75;;;;;;;17.53;98.98;101454.91;5083564;28;20033;-76
2023/08/24 05:59:49;;;;;;;13.30;10.18;;;;;;;17.47;98.39;101457.72;5079187;28;20087;-76
2023/08/24 06:02:14;;;;;;;10.90;9.80;;;;;;;17.59;97.87;101455.88;5084635;28;20020;-76
2023/08/24 06:04:39;;;;;;;14.93;10.20;;;;;;;17.63;97.25;101459.81;5081555;28;20025;-76
2023/08/24 06:07:08;;;;;;;12.00;10.60;;;;;;;17.66;97.16;101464.78;5079859;28;20024;-76
2023/08/24 06:09:34;;;;;;;11.27;9.80;;;;;;;17.70;97.41;101449.66;5077320;28;20032;-76
2023/08/24 06:12:00;;;;;;;12.10;10.43;;;;;;;18.00;96.56;101454.28;5083275;28;20105;-76
2023/08/24 06:14:25;;;;;;;12.70;10.73;;;;;;;18.75;92.01;101448.47;5092500;28;20452;-75
2023/08/24 06:16:53;;;;;;;14.65;9.60;;;;;;;19.70;87.53;101453.78;5093259;28;20027;-77
2023/08/24 06:19:18;;;;;;;10.77;9.38;;;;;;;20.96;80.13;101453.72;5095723;28;20032;-76
2023/08/24 06:21:43;;;;;;;10.75;8.77;;;;;;;21.24;76.21;101443.69;5095876;28;20028;-77
2023/08/24 06:24:12;;;;;;;12.52;8.70;;;;;;;22.11;72.38;101434.75;5103514;28;20040;-76
2023/08/24 06:26:37;;;;;;;9.90;8.85;;;;;;;22.98;69.23;101436.50;5093208;28;20034;-76
2023/08/24 06:29:03;;;;;;;9.90;8.90;;;;;;;23.04;68.21;101446.41;5090639;28;20035;-76
2023/08/24 06:31:31;;;;;;;11.25;8.27;;;;;;;23.74;66.85;101440.66;5089210;28;20044;-77
2023/08/24 06:33:56;;;;;;;11.18;8.32;;;;;;;24.27;63.10;101438.81;5091613;28;20042;-76
2023/08/24 06:36:21;;;;;;;10.48;9.38;;;;;;;23.82;63.84;101432.97;5085515;28;20473;-76
2023/08/24 06:38:47;;;;;;;10.45;8.57;;;;;;;24.49;62.83;101424.75;5087070;28;20030;-77
2023/08/24 06:41:12;;;;;;;10.90;8.13;;;;;;;25.07;60.68;101423.50;5087746;28;20024;-77
2023/08/24 06:43:38;;;;;;;8.95;8.05;;;;;;;25.18;61.07;101397.59;5083946;28;20081;-76
2023/08/24 06:46:07;;;;;;;11.45;8.38;;;;;;;25.66;58.41;101388.81;5081297;28;20027;-77
2023/08/24 06:48:54;;;;;;;10.32;8.13;;;;;;;25.44;58.91;101378.19;5090909;28;20511;-77
2023/08/24 06:51:19;;;;;;;12.00;8.73;;;;;;;25.81;58.16;101378.75;5085998;28;20024;-77
2023/08/24 06:53:46;;;;;;;13.10;8.75;;;;;;;25.67;57.90;101375.81;5086532;28;20441;-76
2023/08/24 06:56:12;;;;;;;10.52;8.77;;;;;;;26.06;57.16;101371.38;5083174;28;20031;-76
2023/08/24 06:58:38;;;;;;;10.55;8.75;;;;;;;26.25;56.88;101372.31;5088891;28;20701;-76
2023/08/24 07:01:06;;;;;;;10.30;9.30;;;;;;;26.24;55.81;101370.69;5082490;28;20266;-77
2023/08/24 07:03:33;;;;;;;10.85;9.73;;;;;;;26.95;53.83;101375.75;5090644;28;20031;-76
2023/08/24 07:06:01;;;;;;;10.75;9.02;;;;;;;27.32;53.71;101379.69;5089133;28;20085;-77
2023/08/24 07:08:26;;;;;;;13.52;9.73;;;;;;;27.72;52.29;101381.31;5083351;28;20028;-76
2023/08/24 07:10:52;;;;;;;12.70;9.55;;;;;;;27.97;50.28;101383.66;5089703;28;20388;-77
2023/08/24 07:13:17;;;;;;;10.60;9.55;;;;;;;27.76;49.37;101387.88;5090022;28;20028;-76
2023/08/24 07:15:43;;;;;;;10.20;9.18;;;;;;;28.26;48.62;101396.47;5089326;28;20491;-77
2023/08/24 07:18:08;;;;;;;11.00;8.85;;;;;;;28.61;48.10;101393.34;5089093;28;20164;-76
2023/08/24 07:20:34;;;;;;;10.48;9.48;;;;;;;29.04;47.25;101390.28;5089166;28;20384;-76
2023/08/24 07:22:59;;;;;;;11.80;9.65;;;;;;;29.16;45.79;101388.94;5090064;28;20016;-76
2023/08/24 07:25:26;;;;;;;9.45;8.38;;;;;;;29.61;45.73;101391.00;5089780;28;20521;-76
2023/08/24 07:27:52;;;;;;;10.40;9.30;;;;;;;29.20;45.76;101392.75;5089912;28;20028;-75
2023/08/24 07:30:17;;;;;;;11.98;9.68;;;;;;;29.57;44.78;101387.22;5089020;28;20032;-76
2023/08/24 07:32:42;;;;;;;11.85;9.02;;;;;;;30.27;43.25;101376.59;5070928;28;20043;-76
2023/08/24 07:35:08;;;;;;;10.68;9.57;;;;;;;30.09;44.63;101375.69;5089538;28;20470;-76
2023/08/24 07:37:33;;;;;;;9.93;9.02;;;;;;;29.79;44.38;101361.41;5089833;28;20036;-76
2023/08/24 07:39:58;;;;;;;10.20;8.73;;;;;;;29.82;43.68;101360.00;5089971;28;20020;-76
2023/08/24 07:42:24;;;;;;;11.10;8.18;;;;;;;30.81;42.44;101361.78;5088705;28;20021;-76
2023/08/24 07:44:49;;;;;;;12.27;9.60;;;;;;;29.81;44.11;101370.25;5089710;28;20012;-75
2023/08/24 07:47:15;;;;;;;9.88;8.13;;;;;;;30.47;43.06;101375.22;5089006;28;20101;-76
2023/08/24 07:49:44;;;;;;;10.60;9.52;;;;;;;30.38;42.90;101366.03;5080954;28;20479;-76
2023/08/24 07:52:12;;;;;;;10.30;9.00;;;;;;;30.72;41.68;101372.91;5088827;28;20398;-75
2023/08/24 07:54:38;;;;;;;11.32;9.70;;;;;;;31.09;39.93;101372.63;5089522;28;20028;-76
2023/08/24 07:57:07;;;;;;;9.70;8.00;;;;;;;31.55;39.95;101371.22;5089308;28;20325;-76
2023/08/24 07:59:32;;;;;;;12.13;9.27;;;;;;;31.02;39.68;101366.75;5088822;28;20043;-76
2023/08/24 08:01:58;;;;;;;10.43;8.93;;;;;;;31.86;38.10;101367.44;5087064;28;20035;-76
2023/08/24 08:04:23;;;;;;;9.93;8.20;;;;;;;31.79;38.43;101360.75;5088872;28;20053;-75
2023/08/24 08:06:48;;;;;;;8.90;6.93;;;;;;;33.32;35.91;101369.41;5088789;28;20468;-76
2023/08/24 08:09:14;;;;;;;9.68;8.27;;;;;;;33.45;34.56;101369.50;5088704;28;20028;-76
2023/08/24 08:11:39;;;;;;;9.55;8.45;;;;;;;33.14;35.75;101367.91;5079662;28;20098;-76
2023/08/24 08:14:05;;;;;;;8.98;8.02;;;;;;;33.16;35.08;101362.81;5064150;28;20021;-76
2023/08/24 08:16:30;;;;;;;8.07;6.82;;;;;;;34.09;33.83;101357.06;5066279;28;20455;-76
2023/08/24 08:18:56;;;;;;;9.38;7.60;;;;;;;33.22;34.99;101358.66;5065481;28;20435;-76
2023/08/24 08:21:23;;;;;;;7.68;6.82;;;;;;;33.45;34.91;101358.34;5067829;28;20428;-76
2023/08/24 08:23:48;;;;;;;10.43;7.45;;;;;;;33.39;34.20;101352.94;5069405;28;20484;-75
2023/08/24 08:26:13;;;;;;;9.73;6.93;;;;;;;33.69;34.46;101354.81;5060684;28;20039;-76
2023/08/24 08:28:39;;;;;;;8.65;6.57;;;;;;;33.05;34.54;101352.03;5047233;28;20480;-75
2023/08/24 08:31:05;;;;;;;8.70;6.45;;;;;;;33.21;34.52;101362.59;5068421;28;20092;-76
2023/08/24 08:33:31;;;;;;;6.53;5.45;;;;;;;33.63;33.58;101357.00;5068955;28;20020;-76
2023/08/24 08:35:56;;;;;;;7.55;6.20;;;;;;;34.16;33.15;101345.31;5064645;28;20025;-76
2023/08/24 08:38:25;;;;;;;7.55;6.80;;;;;;;33.08;34.42;101356.16;5066744;28;20070;-76
2023/08/24 08:40:51;;;;;;;6.38;5.78;;;;;;;33.24;34.26;101361.91;5056479;28;20490;-76
2023/08/24 08:43:16;;;;;;;10.32;6.05;;;;;;;34.13;32.35;101357.16;5064370;28;20104;-76
2023/08/24 08:45:42;;;;;;;9.80;5.97;;;;;;;34.16;32.23;101350.91;5051281;28;20074;-76
2023/08/24 08:48:07;;;;;;;6.55;4.97;;;;;;;34.56;31.41;101350.25;5050112;28;20025;-76
2023/08/24 08:50:33;;;;;;;6.15;5.28;;;;;;;33.85;32.28;101353.00;5065395;28;20029;-76
2023/08/24 08:52:58;;;;;;;7.10;4.82;;;;;;;34.21;32.10;101361.84;5068623;28;20472;-76
2023/08/24 08:55:24;;;;;;;6.82;5.30;;;;;;;33.13;34.18;101352.34;5065283;28;20063;-76
2023/08/24 08:57:49;;;;;;;10.35;4.90;;;;;;;32.71;33.87;101348.31;5024785;28;20044;-76
2023/08/24 09:00:17;;;;;;;7.07;4.75;;;;;;;32.89;34.31;101342.66;5068303;28;20028;-76
2023/08/24 09:02:44;;;;;;;5.90;4.88;;;;;;;33.12;33.24;101331.97;5042576;28;20037;-76
2023/08/24 09:05:11;;;;;;;6.90;5.68;;;;;;;33.09;33.93;101322.31;5059147;28;20040;-76
2023/08/24 09:07:36;;;;;;;7.18;4.90;;;;;;;32.51;35.08;101316.47;5067660;28;20024;-76
2023/08/24 09:10:03;;;;;;;8.98;5.20;;;;;;;31.80;36.76;101303.94;5040344;28;20036;-76
2023/08/24 09:12:32;;;;;;;5.43;4.57;;;;;;;32.09;35.69;101307.94;5081674;28;20059;-76
2023/08/24 09:14:57;;;;;;;6.00;4.95;;;;;;;32.44;34.92;101289.13;5087440;28;20063;-76
2023/08/24 09:17:23;;;;;;;8.40;4.53;;;;;;;32.35;35.18;101288.34;5079811;28;20024;-76
2023/08/24 09:19:50;;;;;;;9.25;5.03;;;;;;;32.31;35.62;101281.78;5087902;28;20024;-76
2023/08/24 09:22:15;;;;;;;7.80;5.05;;;;;;;32.08;36.24;101275.66;5089206;28;20028;-76
2023/08/24 09:24:40;;;;;;;7.35;4.63;;;;;;;33.11;34.48;101275.38;5088839;28;20350;-76
2023/08/24 09:27:16;;;;;;;7.20;4.85;;;;;;;32.68;35.00;101273.72;5103597;28;20025;-75
2023/08/24 09:29:42;;;;;;;8.55;5.20;;;;;;;33.04;34.11;101275.09;5096226;28;20024;-76
2023/08/24 09:32:10;;;;;;;5.80;4.50;;;;;;;33.65;33.32;101265.38;5088514;28;20550;-76
2023/08/24 09:34:36;;;;;;;5.32;4.80;;;;;;;33.24;34.62;101276.25;5088285;28;20077;-75
2023/08/24 09:37:04;;;;;;;4.85;4.35;;;;;;;33.56;33.19;101259.88;5088406;28;20028;-75
2023/08/24 09:39:29;;;;;;;7.35;5.40;;;;;;;33.03;35.13;101265.09;5090342;28;20028;-76
2023/08/24 09:41:54;;;;;;;7.10;4.82;;;;;;;32.29;36.66;101245.94;5090799;28;20463;-76
2023/08/24 09:44:20;;;;;;;5.90;4.63;;;;;;;32.92;34.61;101228.44;5074172;28;20491;-76
2023/08/24 09:46:45;;;;;;;7.70;4.70;;;;;;;33.24;34.35;101212.09;5092141;28;20032;-76
2023/08/24 09:49:11;;;;;;;9.52;5.18;;;;;;;32.92;35.62;101202.56;5090627;28;20100;-76
2023/08/24 09:51:38;;;;;;;6.43;5.47;;;;;;;32.34;35.82;101203.13;5091898;28;20023;-76
2023/08/24 09:54:10;;;;;;;7.32;5.38;;;;;;;32.33;36.31;101201.47;5083354;28;20043;-76
2023/08/24 09:56:40;;;;;;;6.25;5.35;;;;;;;32.35;35.73;101188.88;5090291;28;20126;-76
2023/08/24 09:59:13;;;;;;;9.05;6.18;;;;;;;32.05;36.24;101204.75;5091434;28;20085;-76
2023/08/24 10:01:43;;;;;;;6.30;5.32;;;;;;;32.56;35.29;101192.81;5091558;28;20498;-76
2023/08/24 10:04:11;;;;;;;7.43;5.30;;;;;;;32.23;35.95;101208.22;5081415;28;20031;-75
2023/08/24 10:06:38;;;;;;;6.15;5.55;;;;;;;32.50;36.01;101200.56;5082972;28;20028;-75
2023/08/24 10:09:06;;;;;;;8.60;5.47;;;;;;;32.77;35.43;101196.41;5079084;28;20552;-75
2023/08/24 10:11:36;;;;;;;6.90;5.40;;;;;;;32.16;36.12;101196.81;5086447;28;20044;-75
2023/08/24 10:14:07;;;;;;;6.75;5.40;;;;;;;31.64;37.48;101203.41;5090512;28;20506;-75
2023/08/24 10:16:32;;;;;;;9.52;5.60;;;;;;;30.31;40.34;101216.53;5090743;28;20107;-75
2023/08/24 10:18:58;;;;;;;7.35;5.40;;;;;;;30.58;40.16;101213.81;5090435;28;20028;-75
2023/08/24 10:21:26;;;;;;;8.40;5.20;;;;;;;30.63;41.18;101217.25;5079983;28;20046;-75
2023/08/24 10:23:52;;;;;;;6.35;4.70;;;;;;;31.13;39.39;101195.66;5091907;28;20089;-76
2023/08/24 10:26:17;;;;;;;6.97;5.07;;;;;;;31.28;38.91;101205.50;5089306;28;20476;-76
2023/08/24 10:28:43;;;;;;;6.82;5.40;;;;;;;30.96;39.23;101214.00;5089471;28;20078;-75
2023/08/24 10:31:08;;;;;;;7.55;5.25;;;;;;;32.17;37.29;101224.31;5067027;28;20575;-76
2023/08/24 10:33:36;;;;;;;7.93;5.03;;;;;;;31.87;37.71;101218.75;5077102;28;20032;-76
2023/08/24 10:36:05;;;;;;;6.82;5.68;;;;;;;31.98;38.02;101218.38;5055451;28;20112;-76
2023/08/24 10:38:30;;;;;;;7.47;5.53;;;;;;;31.77;37.60;101216.34;5090475;28;20031;-76
2023/08/24 10:41:06;;;;;;;5.93;5.35;;;;;;;32.03;38.18;101209.84;5087122;28;20020;-76
2023/08/24 10:43:36;;;;;;;6.70;4.72;;;;;;;31.41;39.81;101204.47;5084517;28;20388;-75
2023/08/24 10:46:03;;;;;;;6.82;4.72;;;;;;;32.23;36.71;101197.09;5068887;28;20031;-74
2023/08/24 10:48:41;;;;;;;7.18;4.15;;;;;;;31.95;37.65;101189.22;5090580;28;20097;-75
2023/08/24 10:51:21;;;;;;;6.20;4.40;;;;;;;31.07;38.01;101170.00;5087502;28;20475;-76
2023/08/24 10:53:53;;;;;;;6.45;4.43;;;;;;;31.26;38.86;101164.06;5091361;28;20032;-75
2023/08/24 10:56:19;;;;;;;6.28;4.40;;;;;;;31.67;38.95;101166.56;5088756;28;20099;-75
2023/08/24 10:58:45;;;;;;;6.07;4.47;;;;;;;31.25;37.96;101159.66;5089764;28;20027;-75
2023/08/24 11:01:23;;;;;;;8.70;4.95;;;;;;;31.18;39.08;101151.03;5089954;28;20016;-75
2023/08/24 11:03:49;;;;;;;6.68;4.57;;;;;;;31.15;38.89;101137.78;5088331;28;20075;-76
2023/08/24 11:06:19;;;;;;;4.97;4.10;;;;;;;31.37;38.99;101133.16;5089849;28;20451;-76
2023/08/24 11:08:48;;;;;;;6.88;4.97;;;;;;;30.95;39.34;101131.72;5091028;28;20383;-76